createdAt,value
2024-02-29T00:01:11.902Z,12.16
2024-02-29T00:03:39.792Z,12.52
2024-02-29T00:06:07.259Z,12.36
2024-02-29T00:08:34.643Z,12.51
2024-02-29T00:11:02.005Z,12.48
2024-02-29T00:13:29.325Z,12.14
2024-02-29T00:15:58.740Z,12.07
2024-02-29T00:18:26.532Z,12.20
2024-02-29T00:20:53.845Z,12.63
2024-02-29T00:23:21.013Z,12.64
2024-02-29T00:25:48.322Z,12.72
2024-02-29T00:28:15.705Z,12.81
2024-02-29T00:30:43.225Z,12.23
2024-02-29T00:33:10.806Z,11.81
2024-02-29T00:35:38.000Z,12.09
2024-02-29T00:38:05.128Z,12.07
2024-02-29T00:40:34.705Z,12.28
2024-02-29T00:43:02.079Z,12.17
2024-02-29T00:45:30.852Z,12.00
2024-02-29T00:48:00.758Z,11.73
2024-02-29T00:50:41.242Z,12.09
2024-02-29T00:56:06.814Z,12.06
2024-02-29T00:58:36.740Z,12.16
2024-02-29T01:01:05.055Z,11.95
2024-02-29T01:03:35.149Z,11.85
2024-02-29T01:06:03.402Z,12.05
2024-02-29T01:08:32.406Z,11.91
2024-02-29T01:11:01.220Z,11.78
2024-02-29T01:13:29.486Z,11.69
2024-02-29T01:15:57.828Z,11.64
2024-02-29T01:18:25.609Z,11.43
2024-02-29T01:20:54.352Z,11.62
2024-02-29T01:23:22.231Z,11.59
2024-02-29T01:25:49.927Z,11.54
2024-02-29T01:28:18.228Z,11.76
2024-02-29T01:30:47.150Z,11.71
2024-02-29T01:33:15.485Z,11.74
2024-02-29T01:35:43.952Z,11.85
2024-02-29T01:38:12.124Z,12.44
2024-02-29T01:40:40.062Z,12.55
2024-02-29T01:43:07.869Z,11.84
2024-02-29T01:45:36.602Z,11.72
2024-02-29T01:48:04.624Z,11.71
2024-02-29T01:50:33.055Z,11.56
2024-02-29T01:53:00.894Z,11.67
2024-02-29T01:55:28.981Z,11.61
2024-02-29T01:57:57.445Z,11.22
2024-02-29T02:00:26.051Z,11.60
2024-02-29T02:02:54.322Z,11.57
2024-02-29T02:05:25.116Z,11.44
2024-02-29T02:07:53.303Z,11.83
2024-02-29T02:10:21.418Z,11.53
2024-02-29T02:12:49.678Z,11.32
2024-02-29T02:15:21.060Z,11.29
2024-02-29T02:17:49.059Z,11.58
2024-02-29T02:20:16.963Z,11.62
2024-02-29T02:22:45.374Z,11.83
2024-02-29T02:25:14.752Z,11.83
2024-02-29T02:27:42.068Z,11.82
2024-02-29T02:30:09.877Z,11.58
2024-02-29T02:32:40.934Z,11.76
2024-02-29T02:35:08.469Z,11.87
2024-02-29T02:37:35.519Z,11.76
2024-02-29T02:40:02.755Z,11.94
2024-02-29T02:42:30.458Z,12.04
2024-02-29T02:44:57.536Z,12.00
2024-02-29T02:47:25.052Z,11.77
2024-02-29T02:49:52.401Z,12.03
2024-02-29T02:52:19.644Z,11.98
2024-02-29T02:54:47.061Z,11.60
2024-02-29T02:57:14.443Z,11.46
2024-02-29T02:59:41.841Z,11.46
2024-02-29T03:02:09.279Z,11.46
2024-02-29T03:04:37.499Z,11.50
2024-02-29T03:07:04.848Z,11.52
2024-02-29T03:09:32.549Z,11.77
2024-02-29T03:11:59.766Z,11.69
2024-02-29T03:14:27.221Z,11.71
2024-02-29T03:16:54.908Z,11.61
2024-02-29T03:19:22.463Z,11.79
2024-02-29T03:21:50.324Z,11.41
2024-02-29T03:24:17.672Z,11.40
2024-02-29T03:26:45.946Z,11.34
2024-02-29T03:29:16.295Z,11.34
2024-02-29T03:31:44.176Z,11.54
2024-02-29T03:34:12.844Z,11.44
2024-02-29T03:36:41.190Z,11.45
2024-02-29T03:39:12.499Z,11.46
2024-02-29T03:41:43.307Z,11.53
2024-02-29T03:44:10.731Z,11.53
2024-02-29T03:46:38.113Z,11.38
2024-02-29T03:49:05.677Z,11.88
2024-02-29T03:51:33.444Z,11.99
2024-02-29T03:54:00.788Z,11.94
2024-02-29T03:56:28.331Z,12.09
2024-02-29T03:58:55.608Z,12.14
2024-02-29T04:01:22.795Z,12.00
2024-02-29T04:03:50.094Z,11.99
2024-02-29T04:06:17.509Z,11.56
2024-02-29T04:08:45.127Z,11.48
2024-02-29T04:11:12.484Z,11.34
2024-02-29T04:13:39.963Z,11.41
2024-02-29T04:16:07.453Z,11.46
2024-02-29T04:18:34.720Z,11.64
2024-02-29T04:21:02.232Z,12.07
2024-02-29T04:23:29.889Z,11.68
2024-02-29T04:25:57.095Z,11.79
2024-02-29T04:28:24.591Z,11.54
2024-02-29T04:30:52.190Z,11.98
2024-02-29T04:33:19.562Z,11.72
2024-02-29T04:35:46.768Z,11.62
2024-02-29T04:38:14.476Z,11.47
2024-02-29T04:40:42.307Z,11.40
2024-02-29T04:43:10.456Z,11.41
2024-02-29T04:45:38.902Z,11.37
2024-02-29T04:48:06.855Z,11.47
2024-02-29T04:50:35.115Z,11.53
2024-02-29T04:53:03.215Z,11.59
2024-02-29T04:55:32.282Z,11.36
2024-02-29T04:58:00.496Z,11.16
2024-02-29T05:00:28.176Z,11.23
2024-02-29T05:02:55.982Z,11.29
2024-02-29T05:05:23.548Z,11.16
2024-02-29T05:07:51.513Z,11.24
2024-02-29T05:10:19.536Z,11.30
2024-02-29T05:12:47.723Z,11.16
2024-02-29T05:15:15.585Z,11.39
2024-02-29T05:17:43.654Z,11.13
2024-02-29T05:20:11.448Z,11.18
2024-02-29T05:22:40.026Z,11.25
2024-02-29T05:25:07.906Z,11.18
2024-02-29T05:27:35.715Z,11.10
2024-02-29T05:30:03.493Z,11.10
2024-02-29T05:32:39.587Z,11.24
2024-02-29T05:35:13.287Z,11.40
2024-02-29T05:37:40.509Z,11.25
2024-02-29T05:40:07.708Z,11.52
2024-02-29T05:42:36.248Z,11.72
2024-02-29T05:45:03.694Z,11.79
2024-02-29T05:47:31.921Z,11.40
2024-02-29T05:49:59.874Z,11.42
2024-02-29T05:52:27.892Z,11.40
2024-02-29T05:54:55.542Z,11.36
2024-02-29T05:57:23.645Z,11.59
2024-02-29T05:59:50.889Z,11.77
2024-02-29T06:02:18.223Z,11.38
2024-02-29T06:04:48.679Z,11.23
2024-02-29T06:07:16.442Z,11.21
2024-02-29T06:09:44.609Z,11.28
2024-02-29T06:12:12.704Z,11.42
2024-02-29T06:14:40.017Z,11.30
2024-02-29T06:17:06.950Z,11.22
2024-02-29T06:19:34.282Z,11.14
2024-02-29T06:22:02.280Z,11.16
2024-02-29T06:24:29.957Z,11.28
2024-02-29T06:26:57.407Z,11.26
2024-02-29T06:29:24.904Z,11.21
2024-02-29T06:31:54.219Z,11.28
2024-02-29T06:34:24.081Z,11.22
2024-02-29T06:36:54.566Z,11.31
2024-02-29T06:39:24.802Z,11.29
2024-02-29T06:41:52.678Z,11.41
2024-02-29T06:44:20.768Z,11.65
2024-02-29T06:46:48.406Z,11.45
2024-02-29T06:49:16.069Z,11.40
2024-02-29T06:51:43.465Z,11.38
2024-02-29T06:54:11.109Z,11.37
2024-02-29T06:56:40.857Z,11.36
2024-02-29T06:59:08.276Z,11.58
2024-02-29T07:01:35.529Z,11.57
2024-02-29T07:04:03.282Z,11.62
2024-02-29T07:06:30.360Z,11.37
2024-02-29T07:08:57.977Z,11.36
2024-02-29T07:11:25.831Z,11.08
2024-02-29T07:13:53.324Z,10.88
2024-02-29T07:16:20.723Z,11.03
2024-02-29T07:18:47.933Z,11.16
2024-02-29T07:21:17.469Z,11.30
2024-02-29T07:23:47.509Z,11.38
2024-02-29T07:26:14.563Z,11.43
2024-02-29T07:28:42.325Z,11.69
2024-02-29T07:31:09.947Z,11.71
2024-02-29T07:33:40.737Z,11.66
2024-02-29T07:36:08.199Z,11.58
2024-02-29T07:38:36.863Z,11.79
2024-02-29T07:41:05.468Z,11.95
2024-02-29T07:43:32.959Z,11.76
2024-02-29T07:46:01.412Z,11.67
2024-02-29T07:48:29.926Z,11.67
2024-02-29T07:50:58.810Z,11.72
2024-02-29T07:53:26.170Z,11.71
2024-02-29T07:55:53.679Z,11.85
2024-02-29T08:01:25.243Z,11.88
2024-02-29T08:03:56.229Z,12.01
2024-02-29T08:06:25.791Z,11.92
2024-02-29T08:08:53.875Z,12.03
2024-02-29T08:11:21.511Z,12.04
2024-02-29T08:13:49.900Z,12.03
2024-02-29T08:16:18.405Z,12.30
2024-02-29T08:18:46.814Z,12.18
2024-02-29T08:21:14.146Z,12.23
2024-02-29T08:23:43.637Z,12.04
2024-02-29T08:26:24.882Z,12.25
2024-02-29T08:28:58.067Z,12.00
2024-02-29T08:31:54.177Z,11.99
2024-02-29T08:34:41.403Z,11.83
2024-02-29T08:37:08.997Z,12.02
2024-02-29T08:39:37.403Z,11.83
2024-02-29T08:42:08.194Z,12.08
2024-02-29T08:44:36.205Z,12.21
2024-02-29T08:47:04.237Z,12.23
2024-02-29T08:49:32.253Z,12.27
2024-02-29T08:52:00.368Z,12.50
2024-02-29T08:54:27.494Z,12.43
2024-02-29T08:56:54.912Z,12.23
2024-02-29T08:59:22.512Z,12.30
2024-02-29T09:01:50.832Z,12.30
2024-02-29T09:04:43.255Z,12.23
2024-02-29T09:07:11.311Z,12.18
2024-02-29T09:09:39.109Z,12.37
2024-02-29T09:12:08.006Z,12.43
2024-02-29T09:14:35.724Z,12.81
2024-02-29T09:17:03.578Z,12.56
2024-02-29T09:19:32.589Z,12.67
2024-02-29T09:22:01.415Z,12.69
2024-02-29T09:24:30.695Z,12.66
2024-02-29T09:26:58.526Z,12.98
2024-02-29T09:32:54.629Z,12.92
2024-02-29T09:35:25.971Z,12.73
2024-02-29T09:37:54.232Z,12.75
2024-02-29T09:40:25.891Z,12.70
2024-02-29T09:42:55.140Z,12.45
2024-02-29T09:45:24.991Z,12.35
2024-02-29T09:47:53.835Z,12.66
2024-02-29T09:50:23.936Z,12.06
2024-02-29T09:52:51.453Z,12.41
2024-02-29T09:55:23.501Z,11.93
2024-02-29T09:57:53.276Z,11.89
2024-02-29T10:00:22.247Z,12.18
2024-02-29T10:02:53.729Z,10.95
2024-02-29T10:05:23.064Z,11.67
2024-02-29T10:07:50.039Z,11.83
2024-02-29T10:10:17.295Z,12.28
2024-02-29T10:12:45.134Z,11.83
2024-02-29T10:15:12.628Z,11.56
2024-02-29T10:17:39.780Z,11.60
2024-02-29T10:20:07.228Z,11.52
2024-02-29T10:22:34.955Z,11.90
2024-02-29T10:25:01.954Z,11.79
2024-02-29T10:27:35.223Z,11.85
2024-02-29T10:30:02.253Z,11.97
2024-02-29T10:32:29.782Z,12.10
2024-02-29T10:34:56.975Z,12.14
2024-02-29T10:37:24.365Z,12.08
2024-02-29T10:39:51.752Z,12.24
2024-02-29T10:42:19.425Z,12.70
2024-02-29T10:44:48.132Z,12.62
2024-02-29T10:47:15.711Z,12.93
2024-02-29T10:49:43.009Z,12.54
2024-02-29T10:52:10.789Z,12.77
2024-02-29T10:54:37.890Z,12.56
2024-02-29T10:57:04.884Z,12.64
2024-02-29T10:59:32.809Z,12.56
2024-02-29T11:02:00.941Z,12.72
2024-02-29T11:04:28.713Z,12.43
2024-02-29T11:06:57.127Z,12.55
2024-02-29T11:09:27.564Z,12.52
2024-02-29T11:11:56.138Z,12.60
2024-02-29T11:14:23.620Z,12.61
2024-02-29T11:16:51.424Z,12.46
2024-02-29T11:19:19.676Z,12.39
2024-02-29T11:21:47.557Z,12.57
2024-02-29T11:24:15.321Z,12.48
2024-02-29T11:26:43.792Z,12.32
2024-02-29T11:29:11.234Z,12.79
2024-02-29T11:31:39.485Z,12.96
2024-02-29T11:34:07.173Z,12.98
2024-02-29T11:36:35.913Z,12.69
2024-02-29T11:39:06.948Z,12.63
2024-02-29T11:41:34.161Z,12.39
2024-02-29T11:44:02.128Z,12.35
2024-02-29T11:46:29.646Z,12.45
2024-02-29T11:48:59.766Z,12.56
2024-02-29T11:51:28.650Z,12.70
2024-02-29T11:53:56.306Z,12.66
2024-02-29T11:56:25.065Z,12.66
2024-02-29T11:58:54.159Z,12.70
2024-02-29T12:01:22.309Z,12.85
2024-02-29T12:03:50.577Z,12.96
2024-02-29T12:06:20.494Z,13.19
2024-02-29T12:08:48.147Z,13.11
2024-02-29T12:11:15.985Z,13.05
2024-02-29T12:13:44.739Z,12.89
2024-02-29T12:16:12.481Z,13.08
2024-02-29T12:18:41.162Z,13.03
2024-02-29T12:21:09.053Z,13.08
2024-02-29T12:23:36.760Z,12.94
2024-02-29T12:26:15.148Z,12.96
2024-02-29T12:28:42.684Z,12.57
2024-02-29T12:31:10.231Z,12.78
2024-02-29T12:33:38.024Z,13.04
2024-02-29T12:36:05.437Z,12.87
2024-02-29T12:38:32.815Z,12.94
2024-02-29T12:41:00.163Z,13.00
2024-02-29T12:43:28.437Z,13.05
2024-02-29T12:45:55.849Z,13.68
2024-02-29T12:48:23.161Z,13.53
2024-02-29T12:50:50.708Z,13.27
2024-02-29T12:53:18.090Z,13.45
2024-02-29T12:55:45.365Z,13.76
2024-02-29T12:58:12.976Z,13.82
2024-02-29T13:00:40.832Z,13.81
2024-02-29T13:03:09.030Z,13.81
2024-02-29T13:05:40.109Z,14.06
2024-02-29T13:08:07.561Z,14.49
2024-02-29T13:10:35.063Z,14.72
2024-02-29T13:13:09.332Z,14.81
2024-02-29T13:15:38.049Z,15.13
2024-02-29T13:18:05.700Z,15.17
2024-02-29T13:20:33.060Z,15.00
2024-02-29T13:23:00.423Z,14.98
2024-02-29T13:25:27.867Z,15.25
2024-02-29T13:27:55.675Z,15.07
2024-02-29T13:30:23.924Z,14.89
2024-02-29T13:32:51.463Z,15.14
2024-02-29T13:35:19.185Z,15.05
2024-02-29T13:37:48.470Z,15.25
2024-02-29T13:40:19.306Z,15.41
2024-02-29T13:42:48.463Z,15.61
2024-02-29T13:45:16.282Z,15.82
2024-02-29T13:47:43.996Z,16.01
2024-02-29T13:50:13.927Z,15.92
2024-02-29T13:52:41.834Z,15.79
2024-02-29T13:55:09.807Z,15.78
2024-02-29T13:57:38.996Z,15.73
2024-02-29T14:00:07.819Z,16.01
2024-02-29T14:02:35.606Z,16.12
2024-02-29T14:05:03.406Z,16.07
2024-02-29T14:07:31.679Z,16.15
2024-02-29T14:10:02.709Z,16.19
2024-02-29T14:12:33.290Z,16.37
2024-02-29T14:15:01.486Z,16.84
2024-02-29T14:17:32.240Z,16.59
2024-02-29T14:20:00.044Z,16.27
2024-02-29T14:22:28.163Z,16.70
2024-02-29T14:24:58.402Z,16.71
2024-02-29T14:27:27.453Z,16.59
2024-02-29T14:29:55.265Z,16.65
2024-02-29T14:32:23.831Z,16.35
2024-02-29T14:34:51.806Z,16.44
2024-02-29T14:37:19.360Z,15.99
2024-02-29T14:39:48.234Z,16.03
2024-02-29T14:42:16.837Z,16.39
2024-02-29T14:44:44.879Z,16.45
2024-02-29T14:47:13.756Z,16.54
2024-02-29T14:49:42.001Z,15.89
2024-02-29T14:52:11.101Z,15.87
2024-02-29T14:54:38.650Z,16.53
2024-02-29T14:57:18.667Z,16.29
2024-02-29T14:59:55.582Z,16.15
2024-02-29T15:02:23.766Z,16.37
2024-02-29T15:04:53.960Z,16.58
2024-02-29T15:07:31.864Z,16.59
2024-02-29T15:10:03.960Z,16.74
2024-02-29T15:12:50.135Z,16.04
2024-02-29T15:15:17.877Z,16.50
2024-02-29T15:17:45.714Z,16.83
2024-02-29T15:20:13.372Z,16.83
2024-02-29T15:22:42.838Z,16.82
2024-02-29T15:25:11.465Z,16.77
2024-02-29T15:27:39.076Z,16.44
2024-02-29T15:30:20.601Z,16.69
2024-02-29T15:32:48.590Z,16.71
2024-02-29T15:35:16.633Z,16.77
2024-02-29T15:37:44.326Z,16.48
2024-02-29T15:40:12.107Z,16.58
2024-02-29T15:42:40.008Z,16.42
2024-02-29T15:45:09.695Z,16.35
2024-02-29T15:47:37.521Z,16.31
2024-02-29T15:50:06.264Z,16.29
2024-02-29T15:52:33.706Z,16.08
2024-02-29T15:55:00.869Z,16.05
2024-02-29T15:57:28.610Z,15.91
2024-02-29T15:59:56.178Z,15.80
2024-02-29T16:02:24.907Z,15.63
2024-02-29T16:04:53.942Z,15.32
2024-02-29T16:07:21.664Z,15.32
2024-02-29T16:09:52.656Z,15.07
2024-02-29T16:12:21.819Z,14.73
2024-02-29T16:14:50.732Z,14.62
2024-02-29T16:17:20.683Z,14.56
2024-02-29T16:19:50.147Z,14.22
2024-02-29T16:22:19.695Z,14.05
2024-02-29T16:24:48.858Z,14.15
2024-02-29T16:27:18.241Z,13.84
2024-02-29T16:29:46.348Z,13.62
2024-02-29T16:32:14.091Z,13.84
2024-02-29T16:34:41.598Z,13.55
2024-02-29T16:37:19.333Z,13.39
2024-02-29T16:39:46.935Z,13.50
2024-02-29T16:42:14.190Z,13.49
2024-02-29T16:44:43.369Z,13.49
2024-02-29T16:47:15.236Z,13.54
2024-02-29T16:49:44.761Z,13.63
2024-02-29T16:52:12.152Z,13.31
2024-02-29T16:54:39.933Z,13.45
2024-02-29T16:57:08.741Z,13.42
2024-02-29T16:59:36.135Z,13.45
2024-02-29T17:02:04.287Z,13.44
2024-02-29T17:04:32.723Z,13.39
2024-02-29T17:07:00.463Z,13.42
2024-02-29T17:09:28.076Z,13.38
2024-02-29T17:11:55.119Z,13.35
2024-02-29T17:14:23.812Z,13.42
2024-02-29T17:16:53.121Z,13.33
2024-02-29T17:19:20.397Z,13.17
2024-02-29T17:21:48.310Z,12.95
2024-02-29T17:24:15.977Z,12.86
2024-02-29T17:26:43.625Z,12.55
2024-02-29T17:29:10.828Z,12.51
2024-02-29T17:31:38.601Z,12.37
2024-02-29T17:34:07.994Z,12.40
2024-02-29T17:36:40.132Z,12.46
2024-02-29T17:39:10.850Z,12.53
2024-02-29T17:41:40.854Z,12.41
2024-02-29T17:44:09.038Z,12.22
2024-02-29T17:46:37.254Z,12.36
2024-02-29T17:49:07.428Z,12.35
2024-02-29T17:51:35.102Z,12.19
2024-02-29T17:54:02.372Z,12.04
2024-02-29T17:56:29.565Z,12.12
2024-02-29T17:58:57.719Z,12.15
2024-02-29T18:01:26.127Z,12.18
2024-02-29T18:03:53.505Z,12.09
2024-02-29T18:06:25.053Z,12.12
2024-02-29T18:08:52.292Z,12.05
2024-02-29T18:11:24.674Z,12.06
2024-02-29T18:13:52.078Z,12.24
2024-02-29T18:16:28.030Z,12.14
2024-02-29T18:18:56.686Z,12.32
2024-02-29T18:21:24.392Z,12.52
2024-02-29T18:23:56.858Z,12.58
2024-02-29T18:26:24.426Z,12.10
2024-02-29T18:28:53.901Z,12.11
2024-02-29T18:31:21.532Z,12.18
2024-02-29T18:33:49.860Z,11.63
2024-02-29T18:36:20.277Z,11.50
2024-02-29T18:38:47.924Z,11.60
2024-02-29T18:41:15.406Z,11.53
2024-02-29T18:43:42.986Z,11.66
2024-02-29T18:46:18.516Z,11.69
2024-02-29T18:48:48.013Z,11.57
2024-02-29T18:51:16.351Z,11.54
2024-02-29T18:53:44.375Z,11.53
2024-02-29T18:56:13.653Z,11.50
2024-02-29T18:58:43.887Z,11.47
2024-02-29T19:01:21.026Z,11.77
2024-02-29T19:03:53.822Z,11.72
2024-02-29T19:06:27.513Z,11.65
2024-02-29T19:08:56.139Z,12.16
2024-02-29T19:11:24.895Z,12.09
2024-02-29T19:13:56.945Z,11.94
2024-02-29T19:16:27.670Z,11.81
2024-02-29T19:18:57.565Z,11.79
2024-02-29T19:21:27.264Z,11.61
2024-02-29T19:23:54.888Z,11.54
2024-02-29T19:26:28.774Z,11.76
2024-02-29T19:29:01.061Z,12.06
2024-02-29T19:31:30.463Z,12.24
2024-02-29T19:33:59.190Z,11.80
2024-02-29T19:36:29.114Z,11.97
2024-02-29T19:38:56.804Z,12.31
2024-02-29T19:41:24.759Z,12.51
2024-02-29T19:43:52.644Z,12.42
2024-02-29T19:46:20.563Z,11.97
2024-02-29T19:48:50.508Z,11.97
2024-02-29T19:51:20.912Z,12.32
2024-02-29T19:53:53.537Z,12.41
2024-02-29T19:56:23.689Z,11.97
2024-02-29T19:58:55.813Z,11.85
2024-02-29T20:01:28.141Z,11.87
2024-02-29T20:04:00.737Z,11.96
2024-02-29T20:06:31.882Z,12.48
2024-02-29T20:09:01.448Z,12.42
2024-02-29T20:11:34.546Z,12.07
2024-02-29T20:14:06.157Z,11.68
2024-02-29T20:16:39.123Z,12.03
2024-02-29T20:19:13.058Z,12.33
2024-02-29T20:21:41.890Z,12.47
2024-02-29T20:24:13.195Z,12.47
2024-02-29T20:26:44.770Z,12.11
2024-02-29T20:29:13.373Z,11.81
2024-02-29T20:31:41.286Z,11.88
2024-02-29T20:34:11.144Z,11.65
2024-02-29T20:36:39.853Z,11.86
2024-02-29T20:39:08.235Z,11.83
2024-02-29T20:41:40.298Z,11.65
2024-02-29T20:44:18.996Z,11.40
2024-02-29T20:46:54.211Z,11.59
2024-02-29T20:49:27.226Z,11.51
2024-02-29T20:51:55.581Z,11.93
2024-02-29T20:54:24.038Z,12.09
2024-02-29T20:56:52.662Z,12.06
2024-02-29T20:59:20.580Z,11.88
2024-02-29T21:01:52.817Z,11.62
2024-02-29T21:04:23.932Z,11.72
2024-02-29T21:06:54.331Z,11.83
2024-02-29T21:09:22.485Z,11.91
2024-02-29T21:11:53.122Z,11.75
2024-02-29T21:14:22.795Z,11.48
2024-02-29T21:16:50.494Z,11.52
2024-02-29T21:19:18.257Z,11.84
2024-02-29T21:21:46.183Z,11.65
2024-02-29T21:24:13.809Z,11.72
2024-02-29T21:26:41.007Z,11.66
2024-02-29T21:29:09.639Z,12.15
2024-02-29T21:31:48.095Z,12.02
2024-02-29T21:34:21.136Z,11.53
2024-02-29T21:36:49.696Z,11.89
2024-02-29T21:39:19.360Z,11.73
2024-02-29T21:41:52.525Z,11.90
2024-02-29T21:44:31.593Z,11.90
2024-02-29T21:47:01.453Z,11.90
2024-02-29T21:49:29.201Z,12.02
2024-02-29T21:51:56.727Z,11.98
2024-02-29T21:54:25.453Z,11.76
2024-02-29T21:56:53.591Z,12.08
2024-02-29T21:59:23.165Z,11.82
2024-02-29T22:01:51.905Z,12.20
2024-02-29T22:04:20.187Z,11.90
2024-02-29T22:06:48.409Z,11.63
2024-02-29T22:09:18.096Z,11.66
2024-02-29T22:11:45.691Z,11.42
2024-02-29T22:14:21.953Z,11.47
2024-02-29T22:16:51.167Z,11.48
2024-02-29T22:19:19.419Z,11.53
2024-02-29T22:21:47.081Z,11.54
2024-02-29T22:24:16.878Z,11.84
2024-02-29T22:26:45.616Z,11.73
2024-02-29T22:29:13.887Z,12.00
2024-02-29T22:31:41.793Z,11.85
2024-02-29T22:34:10.037Z,11.76
2024-02-29T22:36:37.711Z,11.84
2024-02-29T22:39:05.026Z,12.16
2024-02-29T22:41:37.927Z,11.58
2024-02-29T22:44:08.356Z,11.59
2024-02-29T22:46:36.632Z,11.70
2024-02-29T22:49:04.333Z,12.12
2024-02-29T22:51:31.879Z,12.35
2024-02-29T22:54:00.152Z,12.07
2024-02-29T22:56:27.396Z,12.29
2024-02-29T22:58:54.831Z,12.06
2024-02-29T23:01:22.634Z,11.79
2024-02-29T23:03:50.229Z,11.86
2024-02-29T23:06:17.684Z,11.63
2024-02-29T23:08:45.451Z,11.84
2024-02-29T23:11:13.183Z,11.78
2024-02-29T23:13:40.650Z,11.78
2024-02-29T23:16:07.804Z,12.14
2024-02-29T23:18:35.066Z,12.05
2024-02-29T23:21:02.584Z,11.93
2024-02-29T23:23:31.625Z,11.80
2024-02-29T23:26:06.679Z,11.41
2024-02-29T23:28:35.401Z,10.89
2024-02-29T23:31:03.461Z,11.63
2024-02-29T23:33:47.628Z,11.79
2024-02-29T23:36:20.802Z,11.71
2024-02-29T23:38:49.089Z,12.21
2024-02-29T23:41:17.129Z,12.01
2024-02-29T23:43:45.475Z,12.36
2024-02-29T23:49:07.803Z,11.82
2024-02-29T23:51:35.977Z,11.61
2024-02-29T23:54:05.940Z,11.44
2024-02-29T23:56:36.728Z,11.53
2024-02-29T23:59:05.686Z,11.92
